Time;durP1;ratioP1;P1;durP2;ratioP2;P2;SDS_P1;SDS_P2;PMS_P1;PMS_P2;Temp;Humidity;BMP_temperature;BMP_pressure;BME280_temperature;BME280_humidity;BME280_pressure;Samples;Min_cycle;Max_cycle;Signal;HPM_P1;HPM_P2
2022/10/12 00:02:09;;;;;;;5.50;3.70;;;;;;;5.37;84.56;101880.28;5009215;28;21321;-83
2022/10/12 00:04:35;;;;;;;9.67;3.77;;;;;;;5.33;84.49;101870.66;5012743;28;20557;-82
2022/10/12 00:07:02;;;;;;;4.43;3.03;;;;;;;5.28;84.41;101865.47;5001922;28;21029;-82
2022/10/12 00:09:28;;;;;;;6.47;3.20;;;;;;;5.26;84.60;101871.69;5003724;28;20616;-82
2022/10/12 00:11:55;;;;;;;6.57;3.17;;;;;;;5.23;84.56;101872.63;5008758;28;20202;-82
2022/10/12 00:14:21;;;;;;;5.80;3.57;;;;;;;5.17;84.58;101878.94;5005195;28;20214;-83
2022/10/12 00:16:48;;;;;;;6.40;3.53;;;;;;;5.13;84.38;101874.63;5007333;28;20203;-82
2022/10/12 00:19:16;;;;;;;6.80;3.43;;;;;;;5.10;84.44;101884.38;5008272;28;20235;-82
2022/10/12 00:21:42;;;;;;;7.83;3.03;;;;;;;5.08;84.59;101883.53;5007372;28;20231;-82
2022/10/12 00:24:09;;;;;;;7.90;3.87;;;;;;;5.07;84.27;101887.06;5006816;28;20226;-82
2022/10/12 00:26:36;;;;;;;6.83;3.57;;;;;;;5.05;84.83;101888.88;5007737;28;20212;-82
2022/10/12 00:29:03;;;;;;;9.87;4.20;;;;;;;5.05;84.79;101888.88;5004801;28;20223;-81
2022/10/12 00:31:30;;;;;;;9.67;3.90;;;;;;;5.05;85.28;101886.22;5006132;28;20290;-82
2022/10/12 00:34:00;;;;;;;6.57;3.70;;;;;;;5.05;84.73;101894.16;5013077;28;20638;-82
2022/10/12 00:36:31;;;;;;;5.70;3.27;;;;;;;5.00;84.80;101890.75;5013137;28;20552;-83
2022/10/12 00:38:58;;;;;;;6.53;3.33;;;;;;;4.94;84.69;101889.09;5011794;28;20250;-84
2022/10/12 00:41:27;;;;;;;5.80;3.50;;;;;;;4.89;84.69;101889.19;5009426;28;20226;-82
2022/10/12 00:43:55;;;;;;;7.87;3.83;;;;;;;4.87;85.05;101884.84;5011050;28;20210;-83
2022/10/12 00:46:26;;;;;;;5.67;3.33;;;;;;;4.84;85.05;101883.13;5010120;28;21367;-83
2022/10/12 00:48:57;;;;;;;7.97;3.37;;;;;;;4.81;84.94;101890.25;5012427;28;20226;-82
2022/10/12 00:51:24;;;;;;;11.87;3.80;;;;;;;4.77;85.30;101884.16;5008167;28;20199;-83
2022/10/12 00:53:58;;;;;;;6.23;3.63;;;;;;;4.76;85.07;101890.34;5015589;28;20206;-82
2022/10/12 00:56:30;;;;;;;6.70;3.20;;;;;;;4.75;85.75;101890.38;5015690;28;20203;-82
2022/10/12 00:59:00;;;;;;;5.27;3.40;;;;;;;4.72;85.39;101886.00;5008118;28;20231;-82
2022/10/12 01:01:27;;;;;;;7.27;3.40;;;;;;;4.70;85.77;101882.53;5011993;28;20258;-82
2022/10/12 01:03:54;;;;;;;10.43;3.47;;;;;;;4.70;85.97;101884.28;5009570;28;20203;-83
2022/10/12 01:06:21;;;;;;;8.90;3.87;;;;;;;4.69;85.67;101891.34;5002985;28;20211;-82
2022/10/12 01:08:48;;;;;;;5.57;3.37;;;;;;;4.68;86.19;101884.31;5012355;28;20752;-82
2022/10/12 01:11:16;;;;;;;5.97;3.77;;;;;;;4.66;85.99;101883.47;5006367;28;20199;-81
2022/10/12 01:13:42;;;;;;;7.00;3.00;;;;;;;4.62;86.13;101884.47;5006814;28;20210;-82
2022/10/12 01:16:18;;;;;;;5.87;3.00;;;;;;;4.58;85.53;101885.41;5006000;28;20212;-81
2022/10/12 01:18:50;;;;;;;7.30;3.60;;;;;;;4.54;85.91;101887.22;5015381;28;20225;-82
2022/10/12 01:21:20;;;;;;;6.83;3.57;;;;;;;4.51;85.92;101879.38;5006490;28;20206;-82
2022/10/12 01:24:24;;;;;;;5.53;3.00;;;;;;;4.50;85.84;101882.03;5009123;28;20227;-82
2022/10/12 01:27:01;;;;;;;7.27;3.90;;;;;;;4.48;85.90;101879.41;5012671;28;20206;-82
2022/10/12 01:30:01;;;;;;;8.27;4.80;;;;;;;4.48;86.16;101875.91;5014555;28;20261;-82
2022/10/12 01:32:34;;;;;;;7.93;3.73;;;;;;;4.47;86.23;101874.22;5010093;28;20198;-83
2022/10/12 01:35:06;;;;;;;4.33;2.40;;;;;;;4.47;86.05;101876.84;5010790;28;20199;-82
2022/10/12 01:37:43;;;;;;;5.60;2.83;;;;;;;4.43;86.57;101888.34;5010465;28;20226;-82
2022/10/12 01:40:15;;;;;;;4.53;2.20;;;;;;;4.39;86.66;101876.97;5009810;28;20210;-82
2022/10/12 01:42:44;;;;;;;4.40;2.47;;;;;;;4.34;86.88;101873.53;5010802;28;20207;-82
2022/10/12 01:45:13;;;;;;;8.00;2.93;;;;;;;4.33;87.19;101871.78;5010211;28;20701;-83
2022/10/12 01:47:47;;;;;;;6.60;2.30;;;;;;;4.33;86.80;101868.28;5004420;28;20230;-82
2022/10/12 01:50:15;;;;;;;9.10;2.50;;;;;;;4.33;87.68;101871.78;5017466;28;20199;-82
2022/10/12 01:52:49;;;;;;;5.37;2.10;;;;;;;4.34;87.32;101865.63;5011926;28;20215;-82
2022/10/12 01:55:26;;;;;;;6.47;2.30;;;;;;;4.34;87.25;101862.13;5009016;28;20199;-82
2022/10/12 01:58:19;;;;;;;5.87;2.40;;;;;;;4.36;87.52;101862.97;5013621;28;20222;-82
2022/10/12 02:00:54;;;;;;;5.23;2.03;;;;;;;4.33;87.84;101860.38;5007503;28;20862;-82
2022/10/12 02:03:29;;;;;;;5.77;2.00;;;;;;;4.33;88.10;101855.09;5009398;28;20199;-82
2022/10/12 02:06:00;;;;;;;5.60;2.57;;;;;;;4.31;87.69;101857.75;5007606;28;20209;-81
2022/10/12 02:08:31;;;;;;;5.57;2.43;;;;;;;4.31;88.74;101857.75;5005068;28;20219;-82
2022/10/12 02:11:03;;;;;;;5.83;2.77;;;;;;;4.31;87.91;101859.53;5008033;28;20203;-82
2022/10/12 02:13:34;;;;;;;8.10;3.30;;;;;;;4.30;88.57;101861.28;5009421;28;20234;-82
2022/10/12 02:16:04;;;;;;;5.33;2.80;;;;;;;4.30;88.80;101856.03;5012862;28;20218;-81
2022/10/12 02:18:35;;;;;;;7.80;2.50;;;;;;;4.29;88.18;101861.34;5014285;28;20238;-82
2022/10/12 02:21:03;;;;;;;9.13;3.60;;;;;;;4.30;88.87;101856.03;5005679;28;20226;-82
2022/10/12 02:23:30;;;;;;;5.87;2.77;;;;;;;4.28;88.86;101854.34;5008775;28;20216;-82
2022/10/12 02:26:01;;;;;;;10.73;3.40;;;;;;;4.29;88.88;101853.44;5014906;28;20209;-82
2022/10/12 02:28:31;;;;;;;8.73;2.57;;;;;;;4.27;88.41;101844.69;5009608;28;20230;-82
2022/10/12 02:31:04;;;;;;;7.57;2.53;;;;;;;4.26;88.65;101846.44;5011452;28;20222;-82
2022/10/12 02:33:37;;;;;;;9.63;3.23;;;;;;;4.27;88.70;101844.69;5005883;28;20306;-82
2022/10/12 02:36:11;;;;;;;6.73;3.03;;;;;;;4.26;89.21;101846.44;5015088;28;20207;-81
2022/10/12 02:38:42;;;;;;;5.80;2.87;;;;;;;4.25;89.16;101839.44;5010901;28;20605;-82
2022/10/12 02:41:14;;;;;;;4.90;2.67;;;;;;;4.24;88.77;101839.47;5014681;28;20677;-81
2022/10/12 02:43:46;;;;;;;6.50;2.77;;;;;;;4.23;88.76;101837.72;5009163;28;20201;-80
2022/10/12 02:46:13;;;;;;;7.37;2.80;;;;;;;4.20;88.89;101830.72;5003347;28;20545;-82
2022/10/12 02:48:42;;;;;;;4.10;2.33;;;;;;;4.19;89.06;101832.50;5004742;28;20222;-82
2022/10/12 02:51:10;;;;;;;7.40;3.07;;;;;;;4.17;89.04;101829.00;5010439;28;20195;-82
2022/10/12 02:53:37;;;;;;;11.03;3.00;;;;;;;4.16;89.00;101837.81;5008764;28;20211;-83
2022/10/12 02:56:06;;;;;;;11.90;2.83;;;;;;;4.13;88.76;101822.06;5010408;28;20206;-82
2022/10/12 02:58:32;;;;;;;7.50;2.60;;;;;;;4.11;89.15;101821.25;5007793;28;20720;-83
2022/10/12 03:00:59;;;;;;;4.63;2.67;;;;;;;4.09;88.43;101825.66;5012643;28;20232;-83
2022/10/12 03:03:25;;;;;;;6.13;3.00;;;;;;;4.06;88.56;101823.06;5005764;28;20200;-82
2022/10/12 03:05:53;;;;;;;5.30;2.73;;;;;;;4.05;88.78;101825.75;5004512;28;20203;-81
2022/10/12 03:08:20;;;;;;;5.83;2.53;;;;;;;3.99;88.44;101818.81;5009633;28;20231;-82
2022/10/12 03:10:46;;;;;;;7.90;3.07;;;;;;;3.95;88.20;101818.88;5010916;28;20293;-81
2022/10/12 03:13:13;;;;;;;4.43;2.70;;;;;;;3.90;88.59;101816.34;5009107;28;20211;-81
2022/10/12 03:15:39;;;;;;;4.53;3.00;;;;;;;3.89;88.74;101821.63;5014674;28;20202;-82
2022/10/12 03:18:06;;;;;;;6.87;3.27;;;;;;;3.86;88.50;101821.69;5011505;28;20226;-82
2022/10/12 03:20:32;;;;;;;7.23;2.90;;;;;;;3.84;88.87;101821.69;5008136;28;20209;-83
2022/10/12 03:23:00;;;;;;;5.23;3.13;;;;;;;3.82;89.09;101816.47;5004869;28;20218;-82
2022/10/12 03:25:26;;;;;;;5.40;2.87;;;;;;;3.81;88.39;101827.03;5008887;28;20211;-82
2022/10/12 03:27:53;;;;;;;5.67;2.60;;;;;;;3.80;88.71;101823.50;5009711;28;20231;-82
2022/10/12 03:30:19;;;;;;;5.23;3.13;;;;;;;3.78;88.76;101825.31;5003796;28;20207;-82
2022/10/12 03:32:46;;;;;;;5.43;3.00;;;;;;;3.77;89.05;101817.41;5012552;28;20213;-82
2022/10/12 03:35:12;;;;;;;6.17;2.63;;;;;;;3.76;88.34;101818.34;5009449;28;20213;-81
2022/10/12 03:37:38;;;;;;;6.47;3.10;;;;;;;3.74;88.87;101812.22;5004427;28;20231;-82
2022/10/12 03:40:08;;;;;;;6.10;3.27;;;;;;;3.72;88.40;101814.00;5004401;28;20199;-83
2022/10/12 03:42:35;;;;;;;7.23;3.70;;;;;;;3.70;88.76;101808.78;5010781;28;20219;-82
2022/10/12 03:45:02;;;;;;;5.80;3.20;;;;;;;3.70;88.71;101807.91;5004000;28;20207;-82
2022/10/12 03:47:28;;;;;;;6.37;3.70;;;;;;;3.70;89.14;101805.25;5011091;28;20210;-83
2022/10/12 03:49:54;;;;;;;6.53;3.23;;;;;;;3.68;89.29;101810.56;5005220;28;20674;-82
2022/10/12 03:52:21;;;;;;;6.07;3.33;;;;;;;3.68;88.48;101807.06;5005162;28;20704;-83
2022/10/12 03:54:47;;;;;;;6.23;3.20;;;;;;;3.66;89.25;101803.56;5010298;28;20202;-83
2022/10/12 03:57:15;;;;;;;5.63;3.30;;;;;;;3.66;88.92;101808.84;5004184;28;20764;-82
2022/10/12 03:59:42;;;;;;;6.40;3.67;;;;;;;3.64;88.88;101808.84;5006535;28;20218;-82
2022/10/12 04:02:08;;;;;;;7.27;3.23;;;;;;;3.62;88.44;101802.75;5010750;28;20218;-82
2022/10/12 04:04:35;;;;;;;6.43;3.03;;;;;;;3.60;89.00;101803.66;5012915;28;20200;-82
2022/10/12 04:07:01;;;;;;;4.70;2.53;;;;;;;3.57;88.35;101809.88;5010628;28;20206;-82
2022/10/12 04:09:28;;;;;;;4.73;2.60;;;;;;;3.53;88.61;101808.19;5006803;28;20230;-82
2022/10/12 04:11:54;;;;;;;5.97;2.63;;;;;;;3.51;89.03;101795.91;5007169;28;20203;-81
2022/10/12 04:14:22;;;;;;;5.70;3.13;;;;;;;3.46;88.75;101796.84;5011932;28;20203;-81
2022/10/12 04:16:48;;;;;;;7.90;2.97;;;;;;;3.44;88.28;101795.13;5008425;28;20216;-82
2022/10/12 04:19:15;;;;;;;4.80;2.57;;;;;;;3.40;88.45;101798.75;5004861;28;20222;-82
2022/10/12 04:21:42;;;;;;;3.90;2.40;;;;;;;3.37;88.42;101791.75;5015663;28;20234;-82
2022/10/12 04:24:08;;;;;;;5.77;2.50;;;;;;;3.36;88.21;101797.03;5005392;28;20206;-82
2022/10/12 04:26:35;;;;;;;4.07;2.50;;;;;;;3.33;88.49;101797.94;5005887;28;20806;-82
2022/10/12 04:29:01;;;;;;;5.70;2.70;;;;;;;3.31;88.80;101794.47;5007941;28;20226;-82
2022/10/12 04:31:29;;;;;;;5.17;2.60;;;;;;;3.29;88.64;101793.63;5008105;28;20218;-82
2022/10/12 04:33:56;;;;;;;5.20;2.43;;;;;;;3.29;89.60;101800.66;5009679;28;20214;-81
2022/10/12 04:36:22;;;;;;;8.20;2.37;;;;;;;3.27;89.63;101792.75;5007327;28;20273;-83
2022/10/12 04:38:49;;;;;;;3.63;2.30;;;;;;;3.28;89.75;101781.34;5016894;28;20222;-81
2022/10/12 04:41:15;;;;;;;8.50;2.63;;;;;;;3.28;89.78;101786.59;5005600;28;20697;-82
2022/10/12 04:43:42;;;;;;;7.27;2.27;;;;;;;3.28;89.69;101788.38;5004530;28;20211;-82
2022/10/12 04:46:08;;;;;;;8.10;2.67;;;;;;;3.29;89.71;101790.09;5006188;28;20235;-82
2022/10/12 04:48:36;;;;;;;7.87;2.80;;;;;;;3.29;90.01;101788.34;5001596;28;20863;-82
2022/10/12 04:51:04;;;;;;;6.50;2.53;;;;;;;3.30;90.59;101786.59;5006978;28;20204;-82
2022/10/12 04:53:30;;;;;;;4.80;2.40;;;;;;;3.29;90.71;101785.72;5008557;28;20222;-82
2022/10/12 04:55:57;;;;;;;6.73;2.80;;;;;;;3.31;90.69;101790.97;5006096;28;20207;-82
2022/10/12 04:58:23;;;;;;;5.87;2.60;;;;;;;3.33;91.79;101787.41;5008636;28;20233;-82
2022/10/12 05:00:50;;;;;;;5.47;2.43;;;;;;;3.33;91.50;101786.53;5001157;28;20570;-81
2022/10/12 05:03:16;;;;;;;9.57;2.90;;;;;;;3.35;92.31;101788.25;5006728;28;20219;-82
2022/10/12 05:05:45;;;;;;;6.83;2.60;;;;;;;3.38;92.32;101782.97;5006298;28;20594;-82
2022/10/12 05:08:12;;;;;;;8.07;3.10;;;;;;;3.41;92.42;101797.81;5006379;28;20231;-81
2022/10/12 05:10:39;;;;;;;5.93;2.83;;;;;;;3.40;93.00;101791.66;5005209;28;20207;-82
2022/10/12 05:13:05;;;;;;;5.93;2.67;;;;;;;3.42;93.06;101794.28;5009093;28;20199;-82
2022/10/12 05:15:32;;;;;;;5.97;2.40;;;;;;;3.43;93.04;101796.91;5008779;28;20199;-84
2022/10/12 05:17:58;;;;;;;5.87;2.33;;;;;;;3.42;92.61;101792.53;5005909;28;20222;-81
2022/10/12 05:20:25;;;;;;;6.83;2.60;;;;;;;3.41;92.90;101793.41;5008504;28;20728;-82
2022/10/12 05:22:53;;;;;;;7.87;3.07;;;;;;;3.43;92.92;101789.00;5014066;28;20233;-82
2022/10/12 05:25:19;;;;;;;5.67;2.60;;;;;;;3.43;93.14;101786.38;5004046;28;20811;-82
2022/10/12 05:27:46;;;;;;;7.57;2.57;;;;;;;3.41;93.52;101782.88;5011220;28;20223;-81
2022/10/12 05:30:12;;;;;;;3.63;2.37;;;;;;;3.41;93.07;101788.16;5016113;28;20225;-84
2022/10/12 05:32:39;;;;;;;6.43;2.57;;;;;;;3.43;93.59;101785.50;5013668;28;20249;-83
2022/10/12 05:35:06;;;;;;;7.07;2.60;;;;;;;3.46;93.25;101788.94;5015489;28;20215;-84
2022/10/12 05:37:33;;;;;;;6.80;2.37;;;;;;;3.47;93.24;101790.69;5012401;28;20226;-82
2022/10/12 05:40:01;;;;;;;6.67;3.03;;;;;;;3.49;93.59;101788.03;5014655;28;20269;-84
2022/10/12 05:42:27;;;;;;;6.63;2.90;;;;;;;3.51;93.72;101785.38;5020749;28;20239;-85
2022/10/12 05:44:54;;;;;;;7.97;2.90;;;;;;;3.53;94.23;101783.59;5016205;28;20203;-83
2022/10/12 05:47:20;;;;;;;5.97;2.77;;;;;;;3.53;94.36;101786.22;5017700;28;20226;-83
2022/10/12 05:49:47;;;;;;;6.53;2.60;;;;;;;3.55;93.79;101787.09;5012967;28;20203;-83
2022/10/12 05:52:13;;;;;;;7.73;3.00;;;;;;;3.55;94.04;101779.19;5017138;28;20211;-80
2022/10/12 05:54:40;;;;;;;5.67;2.70;;;;;;;3.56;93.50;101780.91;5017376;28;20206;-82
2022/10/12 05:57:08;;;;;;;7.10;2.80;;;;;;;3.55;93.33;101777.41;5020479;28;20215;-83
2022/10/12 05:59:34;;;;;;;4.10;2.63;;;;;;;3.56;93.57;101781.78;5014966;28;20231;-82
2022/10/12 06:02:00;;;;;;;7.90;2.73;;;;;;;3.55;93.65;101785.31;5015064;28;20266;-82
2022/10/12 06:04:27;;;;;;;5.47;3.07;;;;;;;3.54;93.28;101777.44;5020500;28;20207;-82
2022/10/12 06:06:53;;;;;;;6.37;3.87;;;;;;;3.53;93.49;101775.69;5005961;28;20229;-82
2022/10/12 06:09:20;;;;;;;5.33;4.20;;;;;;;3.54;93.35;101775.69;5015934;28;20825;-82
2022/10/12 06:11:47;;;;;;;8.07;4.37;;;;;;;3.55;92.76;101779.19;5018875;28;20199;-82
2022/10/12 06:14:15;;;;;;;6.07;3.70;;;;;;;3.55;92.31;101771.28;5022668;28;20207;-82
2022/10/12 06:16:42;;;;;;;5.80;3.47;;;;;;;3.54;92.33;101772.16;5011563;28;20210;-82
2022/10/12 06:19:10;;;;;;;10.70;3.40;;;;;;;3.52;92.75;101771.31;5014333;28;20235;-82
2022/10/12 06:21:36;;;;;;;6.43;3.40;;;;;;;3.52;92.03;101772.19;5013396;28;20210;-82
2022/10/12 06:24:03;;;;;;;7.63;3.53;;;;;;;3.49;92.77;101767.84;5009658;28;20203;-81
2022/10/12 06:26:30;;;;;;;5.03;3.40;;;;;;;3.48;91.85;101774.00;5013143;28;20218;-82
2022/10/12 06:28:56;;;;;;;8.47;3.90;;;;;;;3.47;91.77;101777.53;5019100;28;20218;-82
2022/10/12 06:31:24;;;;;;;6.03;3.23;;;;;;;3.49;91.85;101774.88;5014646;28;20645;-83
2022/10/12 06:33:51;;;;;;;8.33;3.30;;;;;;;3.52;92.20;101773.97;5011808;28;20199;-83
2022/10/12 06:36:17;;;;;;;5.87;2.90;;;;;;;3.53;91.96;101775.69;5010191;28;20533;-83
2022/10/12 06:38:44;;;;;;;7.77;3.37;;;;;;;3.55;92.32;101777.41;5016304;28;20237;-82
2022/10/12 06:41:11;;;;;;;4.13;3.47;;;;;;;3.56;92.31;101781.78;5014013;28;20214;-81
2022/10/12 06:43:37;;;;;;;5.30;3.97;;;;;;;3.58;91.96;101774.75;5009554;28;20232;-82
2022/10/12 06:46:04;;;;;;;7.73;3.83;;;;;;;3.60;91.92;101774.69;5015894;28;20210;-83
2022/10/12 06:48:32;;;;;;;8.17;3.83;;;;;;;3.64;92.91;101773.75;5025725;28;20242;-84
2022/10/12 06:50:59;;;;;;;13.83;4.00;;;;;;;3.65;92.61;101781.63;5012278;28;20226;-84
2022/10/12 06:53:27;;;;;;;7.00;4.63;;;;;;;3.70;92.29;101773.66;5013784;28;20669;-81
2022/10/12 06:55:54;;;;;;;9.43;4.43;;;;;;;3.73;92.47;101778.88;5002125;28;20566;-82
2022/10/12 06:58:20;;;;;;;5.97;3.70;;;;;;;3.75;92.59;101777.09;5011165;28;20233;-82
2022/10/12 07:00:46;;;;;;;7.60;4.07;;;;;;;3.77;92.95;101775.25;5009707;28;20223;-83
2022/10/12 07:03:13;;;;;;;8.30;4.00;;;;;;;3.80;92.81;101777.84;5004586;28;20231;-82
2022/10/12 07:05:41;;;;;;;8.97;4.27;;;;;;;3.84;93.09;101782.19;5011858;28;20202;-82
2022/10/12 07:08:08;;;;;;;12.63;5.50;;;;;;;3.87;93.27;101784.75;5013443;28;20226;-82
2022/10/12 07:10:34;;;;;;;5.67;4.63;;;;;;;3.90;93.75;101778.56;5015042;28;20211;-82
2022/10/12 07:13:01;;;;;;;5.60;4.60;;;;;;;3.94;93.38;101775.81;5007991;28;20203;-82
2022/10/12 07:15:27;;;;;;;7.77;4.83;;;;;;;3.97;94.07;101777.53;5013754;28;20211;-82
2022/10/12 07:17:54;;;;;;;9.47;4.87;;;;;;;4.01;94.20;101768.69;5015561;28;20227;-81
2022/10/12 07:20:20;;;;;;;9.70;4.87;;;;;;;4.07;94.78;101773.88;5010157;28;20203;-82
2022/10/12 07:22:48;;;;;;;8.30;4.40;;;;;;;4.13;94.39;101774.59;5010429;28;20223;-82
2022/10/12 07:25:15;;;;;;;12.80;4.60;;;;;;;4.19;95.23;101765.72;5010082;28;20199;-82
2022/10/12 07:27:41;;;;;;;7.50;4.60;;;;;;;4.29;95.73;101766.41;5008169;28;20242;-83
2022/10/12 07:30:09;;;;;;;7.30;3.93;;;;;;;4.38;96.31;101764.44;5014144;28;20202;-82
2022/10/12 07:32:36;;;;;;;8.40;4.83;;;;;;;4.48;96.58;101766.00;5015555;28;20207;-82
2022/10/12 07:35:02;;;;;;;9.70;4.47;;;;;;;4.60;96.58;101772.81;5010276;28;20206;-82
2022/10/12 07:37:29;;;;;;;9.37;4.70;;;;;;;4.72;97.69;101769.91;5013588;28;20265;-82
2022/10/12 07:39:57;;;;;;;7.50;4.70;;;;;;;4.85;98.02;101768.72;5013442;28;20214;-83
2022/10/12 07:42:24;;;;;;;10.37;4.53;;;;;;;5.00;98.52;101771.94;5014835;28;20716;-84
2022/10/12 07:44:50;;;;;;;6.97;3.70;;;;;;;5.15;98.81;101768.94;5009077;28;20198;-83
2022/10/12 07:47:18;;;;;;;8.50;4.17;;;;;;;5.32;99.41;101766.78;5011764;28;20238;-83
2022/10/12 07:49:44;;;;;;;8.47;3.83;;;;;;;5.51;99.98;101764.56;5007624;28;20538;-83
2022/10/12 07:52:11;;;;;;;9.60;3.60;;;;;;;5.69;100.00;101765.88;5007184;28;20207;-83
2022/10/12 07:54:37;;;;;;;9.20;3.43;;;;;;;5.87;100.00;101768.06;5007727;28;20202;-83
2022/10/12 07:57:05;;;;;;;6.80;3.30;;;;;;;6.05;100.00;101762.31;5000256;28;20238;-83
2022/10/12 07:59:31;;;;;;;5.93;3.50;;;;;;;6.24;100.00;101771.47;5014636;28;20234;-82
2022/10/12 08:01:58;;;;;;;8.60;3.40;;;;;;;6.43;100.00;101769.19;5002715;28;20200;-82
2022/10/12 08:04:24;;;;;;;5.07;2.83;;;;;;;6.60;100.00;101772.22;5006159;28;20234;-83
2022/10/12 08:06:51;;;;;;;8.30;3.10;;;;;;;6.79;100.00;101774.31;4998115;28;20203;-82
2022/10/12 08:09:17;;;;;;;13.80;4.37;;;;;;;6.96;100.00;101772.03;5004670;28;20227;-82
2022/10/12 08:11:44;;;;;;;6.57;3.53;;;;;;;7.14;100.00;101771.47;5007643;28;20203;-83
2022/10/12 08:14:16;;;;;;;7.47;3.07;;;;;;;7.34;100.00;101783.22;5006559;28;20210;-83
2022/10/12 08:16:43;;;;;;;11.57;3.83;;;;;;;7.49;100.00;101777.41;5009822;28;20290;-84
2022/10/12 08:19:10;;;;;;;9.23;3.50;;;;;;;7.65;99.25;101782.16;5002177;28;20585;-84
2022/10/12 08:21:36;;;;;;;10.17;4.20;;;;;;;7.81;98.95;101785.16;5007446;28;20210;-83
2022/10/12 08:24:03;;;;;;;7.80;4.03;;;;;;;7.94;97.21;101775.00;5009145;28;20222;-84
2022/10/12 08:26:29;;;;;;;8.53;3.67;;;;;;;8.06;97.03;101777.22;5002866;28;20210;-82
2022/10/12 08:28:56;;;;;;;9.40;3.83;;;;;;;8.19;95.91;101785.63;5003652;28;20226;-82
2022/10/12 08:31:25;;;;;;;10.33;3.37;;;;;;;8.32;94.91;101777.19;5006342;28;20210;-82
2022/10/12 08:33:51;;;;;;;11.80;3.93;;;;;;;8.46;93.64;101778.47;5012657;28;20202;-82
2022/10/12 08:36:17;;;;;;;7.20;3.10;;;;;;;8.58;92.58;101778.91;5013931;28;20207;-82
2022/10/12 08:38:47;;;;;;;7.63;4.30;;;;;;;8.69;90.95;101782.03;5010476;28;20225;-82
2022/10/12 08:41:23;;;;;;;13.27;3.97;;;;;;;8.83;90.42;101789.47;5003981;28;20833;-83
2022/10/12 08:44:06;;;;;;;8.83;4.00;;;;;;;8.95;89.52;101786.38;5010271;28;20217;-82
2022/10/12 08:46:34;;;;;;;8.90;3.80;;;;;;;9.09;89.23;101790.28;5006990;28;20199;-82
2022/10/12 08:49:06;;;;;;;7.47;3.60;;;;;;;9.22;87.79;101786.19;5006655;28;20238;-83
2022/10/12 08:51:44;;;;;;;7.17;3.03;;;;;;;9.35;86.80;101784.78;5014505;28;20204;-84
2022/10/12 08:54:14;;;;;;;6.80;3.20;;;;;;;9.50;86.17;101785.94;5015779;28;20570;-84
2022/10/12 08:56:41;;;;;;;7.87;3.30;;;;;;;9.61;85.19;101787.25;5009625;28;20211;-82
2022/10/12 08:59:11;;;;;;;7.83;3.30;;;;;;;9.72;84.13;101776.16;5023004;28;20230;-82
2022/10/12 09:01:52;;;;;;;8.73;3.40;;;;;;;9.85;83.84;101772.06;5008940;28;20214;-82
2022/10/12 09:04:38;;;;;;;5.27;2.73;;;;;;;9.99;83.37;101775.00;5012007;28;20629;-83
2022/10/12 09:07:11;;;;;;;7.00;2.63;;;;;;;10.11;81.67;101778.91;5011899;28;20198;-82
2022/10/12 09:09:48;;;;;;;6.87;2.90;;;;;;;10.22;81.06;101771.34;5016415;28;20223;-82
2022/10/12 09:12:26;;;;;;;6.73;3.00;;;;;;;10.33;80.51;101770.88;5017862;28;20210;-82
2022/10/12 09:15:00;;;;;;;10.80;2.93;;;;;;;10.43;79.47;101769.53;5010707;28;20201;-82
2022/10/12 09:17:33;;;;;;;7.63;3.03;;;;;;;10.55;79.29;101769.00;5019232;28;20234;-82
2022/10/12 09:20:04;;;;;;;6.87;3.07;;;;;;;10.71;78.68;101774.50;5012312;28;20294;-81
2022/10/12 09:22:33;;;;;;;8.50;2.90;;;;;;;10.85;77.86;101777.38;5002484;28;20213;-82
2022/10/12 09:25:02;;;;;;;7.97;3.00;;;;;;;10.97;76.88;101768.78;5005858;28;20232;-82
2022/10/12 09:27:31;;;;;;;7.47;3.50;;;;;;;11.10;75.67;101774.44;5006458;28;20577;-82
2022/10/12 09:30:00;;;;;;;8.07;2.97;;;;;;;11.23;75.31;101772.03;5004835;28;20732;-81
2022/10/12 09:32:47;;;;;;;7.47;2.80;;;;;;;11.35;74.88;101766.09;5007656;28;20665;-83
2022/10/12 09:35:14;;;;;;;8.30;2.70;;;;;;;11.48;74.16;101768.06;5007164;28;20203;-81
2022/10/12 09:37:41;;;;;;;8.13;2.70;;;;;;;11.60;73.40;101761.28;5006719;28;20234;-82
2022/10/12 09:40:20;;;;;;;10.03;3.20;;;;;;;11.71;72.32;101760.72;5003517;28;20672;-82
2022/10/12 09:42:47;;;;;;;11.77;2.67;;;;;;;11.80;71.70;101750.50;5007445;28;20255;-82
2022/10/12 09:45:17;;;;;;;6.40;2.60;;;;;;;11.93;71.77;101752.53;5005766;28;20210;-82
2022/10/12 09:48:14;;;;;;;5.70;2.40;;;;;;;12.07;71.72;101750.00;4999983;28;20236;-83
2022/10/12 09:50:44;;;;;;;6.33;2.60;;;;;;;12.19;70.74;101749.34;5003209;28;20213;-81
2022/10/12 09:53:19;;;;;;;9.00;3.13;;;;;;;12.27;70.44;101743.63;5008976;28;20482;-81
2022/10/12 09:55:53;;;;;;;11.40;2.70;;;;;;;12.38;69.77;101751.91;5008810;28;20208;-82
2022/10/12 09:58:21;;;;;;;7.90;3.17;;;;;;;12.48;68.88;101740.69;5009960;28;20586;-82
2022/10/12 10:01:12;;;;;;;8.57;2.90;;;;;;;12.60;68.87;101744.47;5009367;28;20225;-82
2022/10/12 10:03:40;;;;;;;10.63;3.20;;;;;;;12.74;68.55;101744.59;5010177;28;20219;-82
2022/10/12 10:06:07;;;;;;;7.33;2.50;;;;;;;12.86;67.97;101735.91;5004711;28;20214;-82
2022/10/12 10:08:40;;;;;;;7.23;2.50;;;;;;;12.98;67.20;101733.50;5004300;28;20277;-81
2022/10/12 10:11:14;;;;;;;4.33;2.60;;;;;;;13.06;66.90;101732.13;5014607;28;20201;-82
2022/10/12 10:13:48;;;;;;;9.60;3.13;;;;;;;13.14;66.11;101734.34;5024573;28;20200;-81
2022/10/12 10:16:16;;;;;;;10.77;2.97;;;;;;;13.20;64.64;101728.69;5022892;28;20287;-82
2022/10/12 10:18:47;;;;;;;6.90;2.80;;;;;;;13.27;63.95;101726.50;5014513;28;20238;-82
2022/10/12 10:21:16;;;;;;;8.03;3.10;;;;;;;13.38;64.07;101724.09;5016823;28;20212;-83
2022/10/12 10:23:50;;;;;;;6.50;2.60;;;;;;;13.47;63.16;101728.88;5016775;28;20238;-82
2022/10/12 10:26:19;;;;;;;7.67;4.00;;;;;;;13.56;62.66;101725.69;5010843;28;20202;-82
2022/10/12 10:28:47;;;;;;;5.57;2.20;;;;;;;13.63;61.72;101721.69;5009330;28;20223;-81
2022/10/12 10:31:21;;;;;;;9.30;2.57;;;;;;;13.69;61.55;101721.34;5011707;28;20199;-82
2022/10/12 10:34:10;;;;;;;5.97;2.97;;;;;;;13.77;61.23;101724.44;5014747;28;20222;-81
2022/10/12 10:36:40;;;;;;;5.00;2.17;;;;;;;13.86;61.35;101717.66;5001094;28;20215;-81
2022/10/12 10:39:17;;;;;;;7.20;2.43;;;;;;;13.97;61.14;101717.03;5009556;28;20250;-81
2022/10/12 10:41:43;;;;;;;6.67;2.20;;;;;;;14.09;61.01;101718.94;5005328;28;20202;-82
2022/10/12 10:44:24;;;;;;;6.53;1.90;;;;;;;14.23;61.08;101710.91;5006101;28;20222;-81
2022/10/12 10:46:52;;;;;;;5.03;1.70;;;;;;;14.35;60.04;101709.28;5012779;28;20590;-81
2022/10/12 10:49:28;;;;;;;6.33;1.50;;;;;;;14.41;58.92;101696.41;5011963;28;20242;-82
2022/10/12 10:51:58;;;;;;;8.03;1.87;;;;;;;14.49;58.63;101699.47;5003116;28;20198;-81
2022/10/12 10:54:28;;;;;;;5.63;1.80;;;;;;;14.54;58.36;101704.53;5010982;28;20215;-81
2022/10/12 10:57:00;;;;;;;4.37;1.47;;;;;;;14.63;58.28;101697.72;5013243;28;20209;-82
2022/10/12 10:59:36;;;;;;;4.63;2.27;;;;;;;14.69;57.18;101694.66;5013967;28;20290;-81
2022/10/12 11:02:14;;;;;;;4.80;1.53;;;;;;;14.74;57.29;101695.22;5012322;28;20195;-82
2022/10/12 11:04:47;;;;;;;5.33;1.77;;;;;;;14.83;56.69;101689.28;5016025;28;20226;-82
2022/10/12 11:07:20;;;;;;;4.60;1.53;;;;;;;14.88;56.71;101681.78;5019835;28;20211;-81
2022/10/12 11:09:51;;;;;;;6.50;1.70;;;;;;;14.99;56.38;101683.78;5013169;28;20206;-82
2022/10/12 11:12:24;;;;;;;6.17;2.00;;;;;;;15.06;55.22;101674.34;5017488;28;20203;-82
2022/10/12 11:14:55;;;;;;;8.37;2.10;;;;;;;15.05;54.94;101670.78;5012178;28;20196;-83
2022/10/12 11:17:27;;;;;;;6.90;2.10;;;;;;;15.09;54.72;101674.16;5012259;28;20214;-84
2022/10/12 11:20:06;;;;;;;6.30;1.83;;;;;;;15.11;54.55;101675.78;5012804;28;20359;-85
2022/10/12 11:22:40;;;;;;;4.40;2.07;;;;;;;15.12;53.53;101672.13;5016272;28;20208;-84
2022/10/12 11:25:14;;;;;;;4.87;1.70;;;;;;;15.11;53.27;101666.84;5018496;28;20214;-84
2022/10/12 11:27:42;;;;;;;5.73;2.00;;;;;;;15.13;53.42;101667.63;5009649;28;20232;-82
2022/10/12 11:30:15;;;;;;;3.70;1.63;;;;;;;15.13;53.46;101660.44;5015734;28;20203;-82
2022/10/12 11:32:45;;;;;;;6.40;2.00;;;;;;;15.18;53.18;101657.44;5018813;28;20204;-81
2022/10/12 11:35:20;;;;;;;4.70;1.70;;;;;;;15.15;52.30;101660.34;5021066;28;20198;-82
2022/10/12 11:37:51;;;;;;;4.67;2.50;;;;;;;15.17;52.54;101655.72;5015452;28;20227;-82
2022/10/12 11:40:21;;;;;;;4.90;1.70;;;;;;;15.16;52.03;101656.69;5019031;28;20208;-82
2022/10/12 11:42:49;;;;;;;4.50;1.73;;;;;;;15.15;52.18;101649.59;5019298;28;20605;-82